sensor_id;sensor_type;location;lat;lon;timestamp;pressure;altitude;pressure_sealevel;temperature;humidity
68634;BME280;55625;47.072;22.192;2024-03-22T00:01:52;99986.38;;;4.33;96.22
68634;BME280;55625;47.072;22.192;2024-03-22T00:04:18;99978.75;;;4.30;96.07
68634;BME280;55625;47.072;22.192;2024-03-22T00:06:47;99979.13;;;4.28;95.99
68634;BME280;55625;47.072;22.192;2024-03-22T00:09:14;99984.38;;;4.23;95.75
68634;BME280;55625;47.072;22.192;2024-03-22T00:11:41;99981.56;;;4.19;96.40
68634;BME280;55625;47.072;22.192;2024-03-22T00:14:08;99982.38;;;4.16;96.15
68634;BME280;55625;47.072;22.192;2024-03-22T00:16:35;99982.00;;;4.11;97.27
68634;BME280;55625;47.072;22.192;2024-03-22T00:19:01;99976.78;;;4.13;96.54
68634;BME280;55625;47.072;22.192;2024-03-22T00:21:28;99975.19;;;4.12;96.40
68634;BME280;55625;47.072;22.192;2024-03-22T00:23:56;99984.41;;;4.12;97.53
68634;BME280;55625;47.072;22.192;2024-03-22T00:26:22;99982.81;;;4.08;97.36
68634;BME280;55625;47.072;22.192;2024-03-22T00:28:48;99982.03;;;4.00;97.80
68634;BME280;55625;47.072;22.192;2024-03-22T00:31:14;99982.00;;;3.96;98.24
68634;BME280;55625;47.072;22.192;2024-03-22T00:33:41;99982.81;;;3.93;98.29
68634;BME280;55625;47.072;22.192;2024-03-22T00:36:08;99978.81;;;3.91;97.29
68634;BME280;55625;47.072;22.192;2024-03-22T00:38:34;99986.03;;;3.88;98.05
68634;BME280;55625;47.072;22.192;2024-03-22T00:41:00;99979.63;;;3.84;98.21
68634;BME280;55625;47.072;22.192;2024-03-22T00:43:26;99981.22;;;3.78;98.00
68634;BME280;55625;47.072;22.192;2024-03-22T00:45:52;99983.63;;;3.76;97.86
68634;BME280;55625;47.072;22.192;2024-03-22T00:48:18;99984.03;;;3.67;99.11
68634;BME280;55625;47.072;22.192;2024-03-22T00:50:44;99982.00;;;3.61;98.99
68634;BME280;55625;47.072;22.192;2024-03-22T00:53:10;99979.22;;;3.61;98.04
68634;BME280;55625;47.072;22.192;2024-03-22T00:55:37;99978.00;;;3.58;98.42
68634;BME280;55625;47.072;22.192;2024-03-22T00:58:03;99977.22;;;3.58;98.25
68634;BME280;55625;47.072;22.192;2024-03-22T01:00:29;99972.00;;;3.53;98.28
68634;BME280;55625;47.072;22.192;2024-03-22T01:02:55;99978.00;;;3.51;98.34
68634;BME280;55625;47.072;22.192;2024-03-22T01:05:21;99978.00;;;3.44;98.51
68634;BME280;55625;47.072;22.192;2024-03-22T01:07:47;99975.56;;;3.35;99.69
68634;BME280;55625;47.072;22.192;2024-03-22T01:10:13;99973.56;;;3.32;100.00
68634;BME280;55625;47.072;22.192;2024-03-22T01:12:39;99974.78;;;3.31;99.99
68634;BME280;55625;47.072;22.192;2024-03-22T01:15:07;99973.97;;;3.31;100.00
68634;BME280;55625;47.072;22.192;2024-03-22T01:17:33;99970.75;;;3.29;100.00
68634;BME280;55625;47.072;22.192;2024-03-22T01:20:00;99976.38;;;3.32;100.00
68634;BME280;55625;47.072;22.192;2024-03-22T01:22:26;99973.97;;;3.34;99.77
68634;BME280;55625;47.072;22.192;2024-03-22T01:24:52;99975.56;;;3.35;99.98
68634;BME280;55625;47.072;22.192;2024-03-22T01:27:19;99973.19;;;3.37;99.35
68634;BME280;55625;47.072;22.192;2024-03-22T01:29:46;99970.75;;;3.32;99.75
68634;BME280;55625;47.072;22.192;2024-03-22T01:32:13;99974.78;;;3.31;100.00
68634;BME280;55625;47.072;22.192;2024-03-22T01:34:39;99970.75;;;3.32;100.00
68634;BME280;55625;47.072;22.192;2024-03-22T01:37:06;99971.56;;;3.29;100.00
68634;BME280;55625;47.072;22.192;2024-03-22T01:39:32;99970.75;;;3.32;100.00
68634;BME280;55625;47.072;22.192;2024-03-22T01:41:58;99963.94;;;3.30;100.00
68634;BME280;55625;47.072;22.192;2024-03-22T01:44:28;99960.75;;;3.24;100.00
68634;BME280;55625;47.072;22.192;2024-03-22T01:46:55;99960.34;;;3.22;100.00
68634;BME280;55625;47.072;22.192;2024-03-22T01:49:22;99958.34;;;3.19;100.00
68634;BME280;55625;47.072;22.192;2024-03-22T01:51:50;99952.34;;;3.24;100.00
68634;BME280;55625;47.072;22.192;2024-03-22T01:54:17;99949.53;;;3.17;100.00
68634;BME280;55625;47.072;22.192;2024-03-22T01:56:45;99949.91;;;3.19;100.00
68634;BME280;55625;47.072;22.192;2024-03-22T01:59:12;99945.50;;;3.22;100.00
68634;BME280;55625;47.072;22.192;2024-03-22T02:01:39;99950.72;;;3.20;100.00
68634;BME280;55625;47.072;22.192;2024-03-22T02:04:05;99948.72;;;3.17;100.00
68634;BME280;55625;47.072;22.192;2024-03-22T02:06:32;99949.53;;;3.24;100.00
68634;BME280;55625;47.072;22.192;2024-03-22T02:08:58;99953.94;;;3.25;100.00
68634;BME280;55625;47.072;22.192;2024-03-22T02:11:26;99941.09;;;3.24;100.00
68634;BME280;55625;47.072;22.192;2024-03-22T02:13:52;99948.31;;;3.22;100.00
68634;BME280;55625;47.072;22.192;2024-03-22T02:16:18;99947.13;;;3.23;100.00
68634;BME280;55625;47.072;22.192;2024-03-22T02:18:45;99945.13;;;3.23;100.00
68634;BME280;55625;47.072;22.192;2024-03-22T02:21:11;99950.72;;;3.23;100.00
68634;BME280;55625;47.072;22.192;2024-03-22T02:23:39;99950.31;;;3.25;100.00
68634;BME280;55625;47.072;22.192;2024-03-22T02:26:06;99947.94;;;3.27;100.00
68634;BME280;55625;47.072;22.192;2024-03-22T02:28:33;99951.53;;;3.24;100.00
68634;BME280;55625;47.072;22.192;2024-03-22T02:31:00;99946.72;;;3.24;100.00
68634;BME280;55625;47.072;22.192;2024-03-22T02:33:26;99955.53;;;3.19;100.00
68634;BME280;55625;47.072;22.192;2024-03-22T02:35:52;99953.13;;;3.18;100.00
68634;BME280;55625;47.072;22.192;2024-03-22T02:38:19;99956.75;;;3.25;100.00
68634;BME280;55625;47.072;22.192;2024-03-22T02:40:46;99951.94;;;3.26;100.00
68634;BME280;55625;47.072;22.192;2024-03-22T02:43:12;99956.72;;;3.22;100.00
68634;BME280;55625;47.072;22.192;2024-03-22T02:45:39;99954.31;;;3.20;100.00
68634;BME280;55625;47.072;22.192;2024-03-22T02:48:06;99960.75;;;3.24;100.00
68634;BME280;55625;47.072;22.192;2024-03-22T02:50:37;99947.13;;;3.19;100.00
68634;BME280;55625;47.072;22.192;2024-03-22T02:53:04;99951.53;;;3.17;100.00
68634;BME280;55625;47.072;22.192;2024-03-22T02:55:36;99956.72;;;3.15;100.00
68634;BME280;55625;47.072;22.192;2024-03-22T02:58:02;99955.53;;;3.12;100.00
68634;BME280;55625;47.072;22.192;2024-03-22T03:00:28;99953.91;;;3.11;100.00
68634;BME280;55625;47.072;22.192;2024-03-22T03:02:54;99962.31;;;3.07;100.00
68634;BME280;55625;47.072;22.192;2024-03-22T03:05:20;99955.09;;;3.03;100.00
68634;BME280;55625;47.072;22.192;2024-03-22T03:07:48;99952.66;;;2.98;100.00
68634;BME280;55625;47.072;22.192;2024-03-22T03:10:14;99956.28;;;3.05;100.00
68634;BME280;55625;47.072;22.192;2024-03-22T03:12:40;99948.25;;;2.97;100.00
68634;BME280;55625;47.072;22.192;2024-03-22T03:15:07;99947.44;;;2.89;100.00
68634;BME280;55625;47.072;22.192;2024-03-22T03:17:33;99953.06;;;2.93;100.00
68634;BME280;55625;47.072;22.192;2024-03-22T03:19:59;99953.44;;;2.84;100.00
68634;BME280;55625;47.072;22.192;2024-03-22T03:22:25;99952.66;;;2.84;100.00
68634;BME280;55625;47.072;22.192;2024-03-22T03:24:51;99955.84;;;2.78;100.00
68634;BME280;55625;47.072;22.192;2024-03-22T03:27:17;99961.84;;;2.77;100.00
68634;BME280;55625;47.072;22.192;2024-03-22T03:29:43;99958.19;;;2.73;100.00
68634;BME280;55625;47.072;22.192;2024-03-22T03:32:09;99963.00;;;2.72;100.00
68634;BME280;55625;47.072;22.192;2024-03-22T03:34:35;99966.19;;;2.71;100.00
68634;BME280;55625;47.072;22.192;2024-03-22T03:37:00;99959.38;;;2.68;100.00
68634;BME280;55625;47.072;22.192;2024-03-22T03:39:27;99968.97;;;2.64;100.00
68634;BME280;55625;47.072;22.192;2024-03-22T03:41:55;99970.97;;;2.60;100.00
68634;BME280;55625;47.072;22.192;2024-03-22T03:44:21;99968.56;;;2.58;100.00
68634;BME280;55625;47.072;22.192;2024-03-22T03:46:47;99960.94;;;2.55;100.00
68634;BME280;55625;47.072;22.192;2024-03-22T03:49:13;99966.94;;;2.57;100.00
68634;BME280;55625;47.072;22.192;2024-03-22T03:51:39;99976.16;;;2.58;100.00
68634;BME280;55625;47.072;22.192;2024-03-22T03:54:05;99967.34;;;2.52;100.00
68634;BME280;55625;47.072;22.192;2024-03-22T03:56:31;99967.31;;;2.48;100.00
68634;BME280;55625;47.072;22.192;2024-03-22T03:58:57;99967.31;;;2.45;100.00
68634;BME280;55625;47.072;22.192;2024-03-22T04:01:23;99974.88;;;2.41;100.00
68634;BME280;55625;47.072;22.192;2024-03-22T04:03:49;99979.28;;;2.42;100.00
68634;BME280;55625;47.072;22.192;2024-03-22T04:06:15;99970.84;;;2.38;100.00
68634;BME280;55625;47.072;22.192;2024-03-22T04:08:43;99969.63;;;2.32;100.00
68634;BME280;55625;47.072;22.192;2024-03-22T04:11:09;99970.44;;;2.33;100.00
68634;BME280;55625;47.072;22.192;2024-03-22T04:13:37;99974.44;;;2.32;100.00
68634;BME280;55625;47.072;22.192;2024-03-22T04:16:03;99984.03;;;2.31;100.00
68634;BME280;55625;47.072;22.192;2024-03-22T04:18:29;99982.41;;;2.30;100.00
68634;BME280;55625;47.072;22.192;2024-03-22T04:20:56;99988.44;;;2.32;100.00
68634;BME280;55625;47.072;22.192;2024-03-22T04:23:24;99986.41;;;2.29;100.00
68634;BME280;55625;47.072;22.192;2024-03-22T04:25:59;100000.41;;;2.29;100.00
68634;BME280;55625;47.072;22.192;2024-03-22T04:28:27;99992.00;;;2.25;100.00
68634;BME280;55625;47.072;22.192;2024-03-22T04:31:08;99989.56;;;2.20;100.00
68634;BME280;55625;47.072;22.192;2024-03-22T04:33:36;99992.38;;;2.20;100.00
68634;BME280;55625;47.072;22.192;2024-03-22T04:36:03;99987.19;;;2.22;100.00
68634;BME280;55625;47.072;22.192;2024-03-22T04:38:30;99989.97;;;2.18;100.00
68634;BME280;55625;47.072;22.192;2024-03-22T04:40:57;99985.56;;;2.21;100.00
68634;BME280;55625;47.072;22.192;2024-03-22T04:43:24;99991.56;;;2.20;100.00
68634;BME280;55625;47.072;22.192;2024-03-22T04:45:50;99993.97;;;2.21;100.00
68634;BME280;55625;47.072;22.192;2024-03-22T04:48:19;100003.97;;;2.22;100.00
68634;BME280;55625;47.072;22.192;2024-03-22T04:50:46;100010.00;;;2.24;100.00
68634;BME280;55625;47.072;22.192;2024-03-22T04:53:14;99993.63;;;2.30;100.00
68634;BME280;55625;47.072;22.192;2024-03-22T04:55:40;99995.63;;;2.33;100.00
68634;BME280;55625;47.072;22.192;2024-03-22T04:58:15;99999.66;;;2.39;100.00
68634;BME280;55625;47.072;22.192;2024-03-22T05:00:42;100002.06;;;2.40;100.00
68634;BME280;55625;47.072;22.192;2024-03-22T05:03:08;100004.13;;;2.47;100.00
68634;BME280;55625;47.072;22.192;2024-03-22T05:05:35;100005.75;;;2.52;100.00
68634;BME280;55625;47.072;22.192;2024-03-22T05:08:01;100012.16;;;2.52;100.00
68634;BME280;55625;47.072;22.192;2024-03-22T05:10:29;100012.97;;;2.60;100.00
68634;BME280;55625;47.072;22.192;2024-03-22T05:12:59;100005.00;;;2.65;100.00
68634;BME280;55625;47.072;22.192;2024-03-22T05:15:25;100012.22;;;2.70;100.00
68634;BME280;55625;47.072;22.192;2024-03-22T05:17:53;100014.63;;;2.71;100.00
68634;BME280;55625;47.072;22.192;2024-03-22T05:20:20;100017.09;;;2.76;100.00
68634;BME280;55625;47.072;22.192;2024-03-22T05:22:47;100023.91;;;2.86;100.00
68634;BME280;55625;47.072;22.192;2024-03-22T05:25:14;100019.56;;;2.99;100.00
68634;BME280;55625;47.072;22.192;2024-03-22T05:27:41;100021.63;;;3.13;100.00
68634;BME280;55625;47.072;22.192;2024-03-22T05:30:11;100023.66;;;3.30;100.00
68634;BME280;55625;47.072;22.192;2024-03-22T05:32:39;100010.06;;;3.43;100.00
68634;BME280;55625;47.072;22.192;2024-03-22T05:35:06;100013.69;;;3.65;100.00
68634;BME280;55625;47.072;22.192;2024-03-22T05:37:33;100008.88;;;3.90;99.66
68634;BME280;55625;47.072;22.192;2024-03-22T05:40:00;100008.47;;;4.17;99.08
68634;BME280;55625;47.072;22.192;2024-03-22T05:42:27;100004.81;;;4.41;96.92
68634;BME280;55625;47.072;22.192;2024-03-22T05:44:55;100001.19;;;4.44;96.63
68634;BME280;55625;47.072;22.192;2024-03-22T05:47:21;100005.19;;;4.47;94.76
68634;BME280;55625;47.072;22.192;2024-03-22T05:49:47;100008.03;;;4.43;94.75
68634;BME280;55625;47.072;22.192;2024-03-22T05:52:13;100000.00;;;4.45;94.73
68634;BME280;55625;47.072;22.192;2024-03-22T05:54:39;100006.78;;;4.51;94.59
68634;BME280;55625;47.072;22.192;2024-03-22T05:57:06;100000.41;;;4.44;94.68
68634;BME280;55625;47.072;22.192;2024-03-22T05:59:32;100007.97;;;4.54;94.02
68634;BME280;55625;47.072;22.192;2024-03-22T06:01:59;99999.53;;;4.57;94.13
68634;BME280;55625;47.072;22.192;2024-03-22T06:04:25;99996.31;;;4.70;93.69
68634;BME280;55625;47.072;22.192;2024-03-22T06:06:51;100007.47;;;4.84;93.21
68634;BME280;55625;47.072;22.192;2024-03-22T06:09:17;100000.56;;;5.03;93.24
68634;BME280;55625;47.072;22.192;2024-03-22T06:12:05;99998.88;;;5.23;91.25
68634;BME280;55625;47.072;22.192;2024-03-22T06:14:31;99996.00;;;5.30;91.57
68634;BME280;55625;47.072;22.192;2024-03-22T06:16:57;100000.75;;;5.44;89.99
68634;BME280;55625;47.072;22.192;2024-03-22T06:19:24;100000.69;;;5.51;89.61
68634;BME280;55625;47.072;22.192;2024-03-22T06:21:50;99991.81;;;5.56;89.57
68634;BME280;55625;47.072;22.192;2024-03-22T06:24:16;99999.84;;;5.61;89.81
68634;BME280;55625;47.072;22.192;2024-03-22T06:26:42;99996.56;;;5.66;88.56
68634;BME280;55625;47.072;22.192;2024-03-22T06:29:08;99996.56;;;5.66;90.46
68634;BME280;55625;47.072;22.192;2024-03-22T06:31:34;100000.16;;;5.70;88.46
68634;BME280;55625;47.072;22.192;2024-03-22T06:34:00;99993.25;;;5.78;89.56
68634;BME280;55625;47.072;22.192;2024-03-22T06:36:34;100000.84;;;5.85;87.67
68634;BME280;55625;47.072;22.192;2024-03-22T06:39:00;100001.25;;;5.90;86.90
68634;BME280;55625;47.072;22.192;2024-03-22T06:41:27;100001.13;;;6.01;85.65
68634;BME280;55625;47.072;22.192;2024-03-22T06:43:53;100002.66;;;6.09;86.61
68634;BME280;55625;47.072;22.192;2024-03-22T06:46:19;100005.00;;;6.21;85.55
68634;BME280;55625;47.072;22.192;2024-03-22T06:48:46;100007.28;;;6.34;85.96
68634;BME280;55625;47.072;22.192;2024-03-22T06:51:12;100006.38;;;6.44;85.77
68634;BME280;55625;47.072;22.192;2024-03-22T06:53:38;100006.13;;;6.65;83.62
68634;BME280;55625;47.072;22.192;2024-03-22T06:56:05;100014.69;;;6.92;82.00
68634;BME280;55625;47.072;22.192;2024-03-22T06:58:31;100004.84;;;7.04;82.22
68634;BME280;55625;47.072;22.192;2024-03-22T07:00:57;99999.72;;;7.26;82.33
68634;BME280;55625;47.072;22.192;2024-03-22T07:03:22;100009.94;;;7.46;81.64
68634;BME280;55625;47.072;22.192;2024-03-22T07:05:48;100014.97;;;7.59;80.62
68634;BME280;55625;47.072;22.192;2024-03-22T07:08:14;99999.59;;;7.63;81.17
68634;BME280;55625;47.072;22.192;2024-03-22T07:10:40;100004.78;;;7.68;81.28
68634;BME280;55625;47.072;22.192;2024-03-22T07:13:07;100006.00;;;7.67;78.49
68634;BME280;55625;47.072;22.192;2024-03-22T07:15:33;100008.03;;;7.67;78.68
68634;BME280;55625;47.072;22.192;2024-03-22T07:17:59;100011.31;;;7.62;81.10
68634;BME280;55625;47.072;22.192;2024-03-22T07:20:26;100000.81;;;7.62;81.98
68634;BME280;55625;47.072;22.192;2024-03-22T07:22:52;100003.19;;;7.64;81.28
68634;BME280;55625;47.072;22.192;2024-03-22T07:25:18;99997.56;;;7.64;80.08
68634;BME280;55625;47.072;22.192;2024-03-22T07:27:44;100012.44;;;7.68;79.61
68634;BME280;55625;47.072;22.192;2024-03-22T07:30:12;100006.81;;;7.64;79.58
68634;BME280;55625;47.072;22.192;2024-03-22T07:32:38;100010.44;;;7.65;79.69
68634;BME280;55625;47.072;22.192;2024-03-22T07:35:04;100014.09;;;7.65;78.37
68634;BME280;55625;47.072;22.192;2024-03-22T07:37:30;100010.41;;;7.68;78.10
68634;BME280;55625;47.072;22.192;2024-03-22T07:39:56;100018.53;;;7.66;79.09
68634;BME280;55625;47.072;22.192;2024-03-22T07:42:22;100020.50;;;7.69;78.48
68634;BME280;55625;47.072;22.192;2024-03-22T07:44:48;100022.84;;;7.74;79.09
68634;BME280;55625;47.072;22.192;2024-03-22T07:47:14;100014.25;;;7.82;79.48
68634;BME280;55625;47.072;22.192;2024-03-22T07:49:40;100012.88;;;7.90;76.78
68634;BME280;55625;47.072;22.192;2024-03-22T07:52:06;100018.06;;;7.95;76.91
68634;BME280;55625;47.072;22.192;2024-03-22T07:54:32;100020.03;;;7.98;77.26
68634;BME280;55625;47.072;22.192;2024-03-22T07:56:58;100025.22;;;8.03;76.59
68634;BME280;55625;47.072;22.192;2024-03-22T07:59:24;100017.03;;;8.08;77.24
68634;BME280;55625;47.072;22.192;2024-03-22T08:01:51;100012.13;;;8.13;77.62
68634;BME280;55625;47.072;22.192;2024-03-22T08:04:17;100023.00;;;8.14;77.03
68634;BME280;55625;47.072;22.192;2024-03-22T08:06:43;100020.53;;;8.16;76.43
68634;BME280;55625;47.072;22.192;2024-03-22T08:09:09;100028.16;;;8.19;77.10
68634;BME280;55625;47.072;22.192;2024-03-22T08:11:35;100027.22;;;8.26;76.66
68634;BME280;55625;47.072;22.192;2024-03-22T08:14:01;100031.69;;;8.27;76.48
68634;BME280;55625;47.072;22.192;2024-03-22T08:16:30;100033.28;;;8.28;75.04
68634;BME280;55625;47.072;22.192;2024-03-22T08:18:56;100036.84;;;8.32;76.63
68634;BME280;55625;47.072;22.192;2024-03-22T08:21:23;100035.56;;;8.36;77.65
68634;BME280;55625;47.072;22.192;2024-03-22T08:23:51;100035.13;;;8.38;77.34
68634;BME280;55625;47.072;22.192;2024-03-22T08:26:18;100036.72;;;8.39;76.77
68634;BME280;55625;47.072;22.192;2024-03-22T08:28:45;100045.94;;;8.43;76.37
68634;BME280;55625;47.072;22.192;2024-03-22T08:31:12;100045.88;;;8.47;75.88
68634;BME280;55625;47.072;22.192;2024-03-22T08:33:38;100030.44;;;8.51;76.63
68634;BME280;55625;47.072;22.192;2024-03-22T08:36:04;100031.56;;;8.57;76.49
68634;BME280;55625;47.072;22.192;2024-03-22T08:38:30;100041.06;;;8.67;74.96
68634;BME280;55625;47.072;22.192;2024-03-22T08:40:56;100040.41;;;8.79;76.43
68634;BME280;55625;47.072;22.192;2024-03-22T08:43:22;100033.34;;;8.91;75.61
68634;BME280;55625;47.072;22.192;2024-03-22T08:45:51;100036.66;;;9.06;74.63
68634;BME280;55625;47.072;22.192;2024-03-22T08:48:17;100040.81;;;9.21;73.96
68634;BME280;55625;47.072;22.192;2024-03-22T08:50:44;100038.91;;;9.34;70.58
68634;BME280;55625;47.072;22.192;2024-03-22T08:53:10;100036.63;;;9.45;69.60
68634;BME280;55625;47.072;22.192;2024-03-22T08:55:36;100034.00;;;9.54;70.01
68634;BME280;55625;47.072;22.192;2024-03-22T08:58:04;100036.06;;;9.70;70.55
68634;BME280;55625;47.072;22.192;2024-03-22T09:00:30;100034.69;;;9.94;71.02
68634;BME280;55625;47.072;22.192;2024-03-22T09:02:56;100037.81;;;10.16;71.59
68634;BME280;55625;47.072;22.192;2024-03-22T09:05:22;100030.19;;;10.30;70.73
68634;BME280;55625;47.072;22.192;2024-03-22T09:07:48;100038.81;;;10.42;70.41
68634;BME280;55625;47.072;22.192;2024-03-22T09:10:14;100037.81;;;10.49;68.58
68634;BME280;55625;47.072;22.192;2024-03-22T09:12:40;100026.25;;;10.56;68.63
68634;BME280;55625;47.072;22.192;2024-03-22T09:15:07;100044.69;;;10.64;68.34
68634;BME280;55625;47.072;22.192;2024-03-22T09:17:33;100035.56;;;10.73;68.36
68634;BME280;55625;47.072;22.192;2024-03-22T09:19:59;100026.97;;;10.89;69.92
68634;BME280;55625;47.072;22.192;2024-03-22T09:22:26;100031.47;;;11.03;68.25
68634;BME280;55625;47.072;22.192;2024-03-22T09:24:52;100027.06;;;11.14;66.68
68634;BME280;55625;47.072;22.192;2024-03-22T09:27:18;100022.31;;;11.24;63.18
68634;BME280;55625;47.072;22.192;2024-03-22T09:29:44;100021.84;;;11.26;63.06
68634;BME280;55625;47.072;22.192;2024-03-22T09:32:10;100016.06;;;11.29;63.20
68634;BME280;55625;47.072;22.192;2024-03-22T09:34:36;100021.56;;;11.36;65.69
68634;BME280;55625;47.072;22.192;2024-03-22T09:37:02;100014.97;;;11.39;64.79
68634;BME280;55625;47.072;22.192;2024-03-22T09:39:28;100007.34;;;11.49;66.42
68634;BME280;55625;47.072;22.192;2024-03-22T09:41:57;100012.00;;;11.56;65.78
68634;BME280;55625;47.072;22.192;2024-03-22T09:44:23;100021.25;;;11.72;67.41
68634;BME280;55625;47.072;22.192;2024-03-22T09:46:53;100001.91;;;11.93;64.91
68634;BME280;55625;47.072;22.192;2024-03-22T09:49:19;100001.31;;;12.23;65.79
68634;BME280;55625;47.072;22.192;2024-03-22T09:51:46;100000.38;;;12.39;63.24
68634;BME280;55625;47.072;22.192;2024-03-22T09:54:13;100001.56;;;12.29;60.92
68634;BME280;55625;47.072;22.192;2024-03-22T09:56:39;100002.03;;;12.15;59.21
68634;BME280;55625;47.072;22.192;2024-03-22T09:59:09;100002.25;;;12.07;60.18
68634;BME280;55625;47.072;22.192;2024-03-22T10:01:39;100004.09;;;12.01;59.99
68634;BME280;55625;47.072;22.192;2024-03-22T10:04:05;100006.94;;;12.01;59.65
68634;BME280;55625;47.072;22.192;2024-03-22T10:06:31;99995.34;;;11.96;59.70
68634;BME280;55625;47.072;22.192;2024-03-22T10:09:01;99993.75;;;11.95;59.01
68634;BME280;55625;47.072;22.192;2024-03-22T10:11:28;99999.66;;;12.00;57.88
68634;BME280;55625;47.072;22.192;2024-03-22T10:13:55;99993.06;;;12.03;57.78
68634;BME280;55625;47.072;22.192;2024-03-22T10:16:22;99992.94;;;12.07;58.55
68634;BME280;55625;47.072;22.192;2024-03-22T10:18:48;99991.56;;;12.11;59.57
68634;BME280;55625;47.072;22.192;2024-03-22T10:21:18;99981.78;;;12.12;58.32
68634;BME280;55625;47.072;22.192;2024-03-22T10:23:45;99984.03;;;12.18;56.93
68634;BME280;55625;47.072;22.192;2024-03-22T10:26:14;99971.41;;;12.19;57.69
68634;BME280;55625;47.072;22.192;2024-03-22T10:28:47;99974.03;;;12.26;60.03
68634;BME280;55625;47.072;22.192;2024-03-22T10:31:14;99973.09;;;12.29;57.28
68634;BME280;55625;47.072;22.192;2024-03-22T10:33:44;99967.47;;;12.38;55.94
68634;BME280;55625;47.072;22.192;2024-03-22T10:36:12;99970.06;;;12.45;55.72
68634;BME280;55625;47.072;22.192;2024-03-22T10:38:39;99964.44;;;12.54;56.58
68634;BME280;55625;47.072;22.192;2024-03-22T10:41:06;99962.97;;;12.62;58.09
68634;BME280;55625;47.072;22.192;2024-03-22T10:43:32;99960.19;;;12.71;57.19
68634;BME280;55625;47.072;22.192;2024-03-22T10:46:03;99948.72;;;12.84;58.15
68634;BME280;55625;47.072;22.192;2024-03-22T10:48:30;99947.06;;;12.96;59.11
68634;BME280;55625;47.072;22.192;2024-03-22T10:51:01;99942.97;;;13.19;60.23
68634;BME280;55625;47.072;22.192;2024-03-22T10:53:31;99940.19;;;13.68;59.93
68634;BME280;55625;47.072;22.192;2024-03-22T10:55:59;99943.16;;;14.14;56.07
68634;BME280;55625;47.072;22.192;2024-03-22T10:58:26;99935.91;;;14.68;53.15
68634;BME280;55625;47.072;22.192;2024-03-22T11:00:54;99934.78;;;15.11;51.29
68634;BME280;55625;47.072;22.192;2024-03-22T11:03:25;99937.13;;;15.21;50.31
68634;BME280;55625;47.072;22.192;2024-03-22T11:05:58;99946.31;;;15.26;50.69
68634;BME280;55625;47.072;22.192;2024-03-22T11:08:29;99934.47;;;15.51;49.47
68634;BME280;55625;47.072;22.192;2024-03-22T11:11:08;99934.47;;;15.51;49.12
68634;BME280;55625;47.072;22.192;2024-03-22T11:13:36;99926.25;;;15.44;49.66
68634;BME280;55625;47.072;22.192;2024-03-22T11:16:05;99934.28;;;15.12;49.05
68634;BME280;55625;47.072;22.192;2024-03-22T11:18:31;99931.94;;;15.02;46.70
68634;BME280;55625;47.072;22.192;2024-03-22T11:20:57;99932.44;;;14.54;47.11
68634;BME280;55625;47.072;22.192;2024-03-22T11:23:25;99923.69;;;14.67;50.29
68634;BME280;55625;47.072;22.192;2024-03-22T11:25:51;99929.25;;;14.89;47.99
68634;BME280;55625;47.072;22.192;2024-03-22T11:28:17;99923.19;;;14.96;46.58
68634;BME280;55625;47.072;22.192;2024-03-22T11:30:44;99919.09;;;14.79;47.82
68634;BME280;55625;47.072;22.192;2024-03-22T11:33:10;99912.44;;;14.73;49.39
68634;BME280;55625;47.072;22.192;2024-03-22T11:35:36;99915.00;;;14.71;47.02
68634;BME280;55625;47.072;22.192;2024-03-22T11:38:02;99913.22;;;14.64;47.22
68634;BME280;55625;47.072;22.192;2024-03-22T11:40:30;99908.31;;;14.65;46.03
68634;BME280;55625;47.072;22.192;2024-03-22T11:42:57;99906.72;;;14.64;45.98
68634;BME280;55625;47.072;22.192;2024-03-22T11:45:23;99907.03;;;14.66;44.67
68634;BME280;55625;47.072;22.192;2024-03-22T11:47:50;99901.63;;;14.68;45.26
68634;BME280;55625;47.072;22.192;2024-03-22T11:50:16;99903.72;;;14.67;44.55
68634;BME280;55625;47.072;22.192;2024-03-22T11:52:44;99899.75;;;14.65;43.96
68634;BME280;55625;47.072;22.192;2024-03-22T11:55:13;99894.22;;;14.52;44.67
68634;BME280;55625;47.072;22.192;2024-03-22T11:57:40;99900.34;;;14.32;44.56
68634;BME280;55625;47.072;22.192;2024-03-22T12:00:07;99901.31;;;14.29;45.36
68634;BME280;55625;47.072;22.192;2024-03-22T12:02:38;99897.34;;;14.08;44.88
68634;BME280;55625;47.072;22.192;2024-03-22T12:05:05;99905.44;;;14.10;44.63
68634;BME280;55625;47.072;22.192;2024-03-22T12:07:32;99900.03;;;14.12;43.53
68634;BME280;55625;47.072;22.192;2024-03-22T12:09:58;99890.81;;;14.08;43.04
68634;BME280;55625;47.072;22.192;2024-03-22T12:12:25;99885.09;;;13.98;43.46
68634;BME280;55625;47.072;22.192;2024-03-22T12:14:51;99893.34;;;13.96;44.14
68634;BME280;55625;47.072;22.192;2024-03-22T12:17:17;99889.38;;;14.03;44.34
68634;BME280;55625;47.072;22.192;2024-03-22T12:19:44;99880.97;;;13.99;43.44
68634;BME280;55625;47.072;22.192;2024-03-22T12:22:10;99879.72;;;13.91;44.11
68634;BME280;55625;47.072;22.192;2024-03-22T12:24:36;99883.19;;;13.86;44.22
68634;BME280;55625;47.072;22.192;2024-03-22T12:27:03;99887.94;;;13.80;45.28
68634;BME280;55625;47.072;22.192;2024-03-22T12:29:32;99892.38;;;13.81;44.32
68634;BME280;55625;47.072;22.192;2024-03-22T12:31:58;99880.97;;;13.81;45.53
68634;BME280;55625;47.072;22.192;2024-03-22T12:34:27;99879.06;;;13.78;45.63
68634;BME280;55625;47.072;22.192;2024-03-22T12:36:55;99885.41;;;13.82;45.50
68634;BME280;55625;47.072;22.192;2024-03-22T12:39:22;99883.13;;;13.68;46.76
68634;BME280;55625;47.072;22.192;2024-03-22T12:41:48;99876.47;;;13.62;46.48
68634;BME280;55625;47.072;22.192;2024-03-22T12:44:14;99872.97;;;13.58;46.80
68634;BME280;55625;47.072;22.192;2024-03-22T12:46:40;99874.56;;;13.59;46.34
68634;BME280;55625;47.072;22.192;2024-03-22T12:49:09;99872.34;;;13.54;46.18